Aviation Digital Data Service (ADDS)

Output produced by TAFs form (1302 UTC 19 January 2017)
found at http://www.aviationweather.gov/adds/tafs/
 
KDEN 191253Z 17009KT 10SM CLR M04/M09 A2961 RMK AO2 SLP028 T10441094
KDEN 191136Z 1912/2018 21008KT P6SM SKC 
     FM191700 17005KT P6SM FEW250 
     FM192000 14007KT P6SM FEW120 SCT250 
     FM200100 16007KT P6SM SCT120 BKN200 
     FM200400 20008KT P6SM SCT110 BKN180 
     FM201000 23008KT P6SM VCSH SCT040 BKN070 
     PROB30 2012/2016 5SM -SHSN BKN030 OVC050